Time;durP1;ratioP1;P1;durP2;ratioP2;P2;SDS_P1;SDS_P2;PMS_P1;PMS_P2;Temp;Humidity;BMP_temperature;BMP_pressure;BME280_temperature;BME280_humidity;BME280_pressure;Samples;Min_cycle;Max_cycle;Signal;HPM_P1;HPM_P2
2021/05/14 04:49:02;;;;;;;;;;;;;;;11.95;100.00;96528.95;1731945;78;20261;-62
2021/05/14 04:51:29;;;;;;;;;;;;;;;12.15;100.00;96529.74;1713665;82;21617;-63
2021/05/14 04:53:57;;;;;;;;;;;;;;;12.23;99.53;96540.44;1714014;82;20561;-62
2021/05/14 04:56:24;;;;;;;;;;;;;;;12.28;98.88;96529.82;1715001;82;33660;-62
2021/05/14 04:58:51;;;;;;;;;;;;;;;12.36;98.46;96527.86;1714938;82;20723;-63
2021/05/14 05:01:18;;;;;;;;;;;;;;;12.44;98.25;96525.13;1713257;83;21237;-62
2021/05/14 05:03:47;;;;;;;;;;;;;;;12.52;97.93;96535.02;1714201;82;21651;-61
2021/05/14 05:06:14;;;;;;;;;;;;;;;12.60;98.14;96523.83;1711930;81;20205;-63
2021/05/14 05:08:41;;;;;;;;;;;;;;;12.69;98.05;96522.09;1709935;81;20593;-61
2021/05/14 05:11:08;;;;;;;;;;;;;;;12.77;98.42;96525.92;1710683;82;20747;-61
2021/05/14 05:13:35;;;;;;;;;;;;;;;12.86;98.67;96525.52;1712019;82;21428;-62
2021/05/14 05:16:02;;;;;;;;;;;;;;;12.95;98.47;96527.75;1714682;81;22009;-63
2021/05/14 05:18:29;;;;;;;;;;;;;;;13.05;98.53;96532.05;1708985;82;20543;-59
2021/05/14 05:20:56;;;;;;;;;;;;;;;13.12;98.74;96535.88;1711873;82;20530;-62
2021/05/14 05:23:23;;;;;;;;;;;;;;;13.20;99.41;96530.50;1710663;81;20599;-64
2021/05/14 05:25:51;;;;;;;;;;;;;;;13.28;100.00;96530.63;1709792;82;20659;-66
2021/05/14 05:28:22;;;;;;;;;;;;;;;13.40;100.00;96527.50;1711078;82;21534;-65
2021/05/14 05:30:49;;;;;;;;;;;;;;;13.50;99.81;96534.45;1708722;82;20590;-62
2021/05/14 05:33:15;;;;;;;;;;;;;;;13.59;98.97;96531.39;1713197;82;20249;-63
2021/05/14 05:35:42;;;;;;;;;;;;;;;13.68;98.74;96537.02;1712188;83;20473;-62
2021/05/14 05:38:16;;;;;;;;;;;;;;;13.78;98.61;96545.27;1703011;82;20806;-64
2021/05/14 05:40:43;;;;;;;;;;;;;;;13.89;98.69;96542.68;1702539;82;21787;-66
2021/05/14 05:43:09;;;;;;;;;;;;;;;14.02;98.40;96542.42;1703471;81;20185;-68
2021/05/14 05:45:37;;;;;;;;;;;;;;;14.18;99.75;96538.39;1693803;81;20580;-65
2021/05/14 05:48:05;;;;;;;;;;;;;;;14.38;99.50;96541.16;1682184;83;20269;-65
2021/05/14 05:50:31;;;;;;;;;;;;;;;14.56;99.73;96537.56;1725248;80;20802;-66
2021/05/14 05:52:58;;;;;;;;;;;;;;;14.74;99.06;96541.91;1733402;80;21580;-60
2021/05/14 05:55:25;;;;;;;;;;;;;;;14.92;98.55;96544.12;1731367;80;21202;-64
2021/05/14 05:57:52;;;;;;;;;;;;;;;15.12;98.05;96542.86;1728477;80;20515;-67
2021/05/14 06:00:19;;;;;;;;;;;;;;;15.30;97.12;96544.50;1731809;80;20337;-62
2021/05/14 06:02:46;;;;;;;;;;;;;;;15.43;94.64;96538.34;1728401;81;20935;-63
2021/05/14 06:05:14;;;;;;;;;;;;;;;15.59;92.64;96543.50;1728642;80;21686;-66
2021/05/14 06:07:40;;;;;;;;;;;;;;;15.74;90.69;96542.86;1722181;80;20190;-63
2021/05/14 06:10:11;;;;;;;;;;;;;;;15.87;88.92;96541.95;1727825;80;20245;-64
2021/05/14 06:12:38;;;;;;;;;;;;;;;15.99;85.71;96548.22;1728071;80;20469;-66
2021/05/14 06:15:06;;;;;;;;;;;;;;;16.09;84.61;96553.78;1724828;81;20540;-65
2021/05/14 06:17:38;;;;;;;;;;;;;;;16.15;83.08;96554.41;1727855;80;21676;-64
2021/05/14 06:20:03;;;;;;;;;;;;;;;16.18;81.48;96561.76;1729427;80;20553;-65
2021/05/14 06:22:30;;;;;;;;;;;;;;;16.18;80.07;96565.19;1728389;80;20577;-66
2021/05/14 06:24:57;;;;;;;;;;;;;;;16.17;80.00;96557.00;1727698;80;20363;-64
2021/05/14 06:27:24;;;;;;;;;;;;;;;16.15;80.44;96561.82;1725912;80;20600;-62
2021/05/14 06:29:51;;;;;;;;;;;;;;;16.15;79.76;96567.12;1729535;80;22167;-63
2021/05/14 06:32:17;;;;;;;;;;;;;;;16.14;79.51;96566.88;1725135;80;20592;-67
2021/05/14 06:34:45;;;;;;;;;;;;;;;16.14;79.61;96572.18;1726472;81;20571;-66
2021/05/14 06:37:12;;;;;;;;;;;;;;;16.15;79.02;96571.09;1727388;80;20363;-69
2021/05/14 06:39:39;;;;;;;;;;;;;;;16.17;78.40;96572.91;1693658;82;20617;-63
2021/05/14 06:42:07;;;;;;;;;;;;;;;16.22;77.93;96572.75;1699565;82;21713;-61
2021/05/14 06:44:34;;;;;;;;;;;;;;;16.27;76.92;96574.49;1690681;83;20575;-67
2021/05/14 06:47:02;;;;;;;;;;;;;;;16.33;76.89;96579.33;1670705;82;20569;-65
2021/05/14 06:49:32;;;;;;;;;;;;;;;16.40;76.86;96574.36;1697450;81;20195;-66
2021/05/14 06:52:02;;;;;;;;;;;;;;;16.49;77.50;96578.89;1700566;82;20569;-65
2021/05/14 06:54:29;;;;;;;;;;;;;;;16.60;76.75;96572.98;1700635;82;21728;-70
2021/05/14 06:56:56;;;;;;;;;;;;;;;16.68;73.89;96574.09;1667860;83;20508;-65
2021/05/14 06:59:23;;;;;;;;;;;;;;;16.75;72.64;96571.74;1697562;82;20641;-62
2021/05/14 07:01:52;;;;;;;;;;;;;;;16.83;71.58;96575.48;1699997;82;20417;-64
2021/05/14 07:04:19;;;;;;;;;;;;;;;16.93;71.72;96571.95;1719738;81;20743;-65
2021/05/14 07:06:46;;;;;;;;;;;;;;;17.05;71.57;96573.45;1697714;82;21712;-65
2021/05/14 07:09:13;;;;;;;;;;;;;;;17.17;72.00;96574.91;1703934;82;20597;-63
2021/05/14 07:11:40;;;;;;;;;;;;;;;17.32;70.96;96576.28;1697578;82;20568;-62
2021/05/14 07:14:07;;;;;;;;;;;;;;;17.44;70.77;96571.08;1683549;81;20272;-63
2021/05/14 07:16:34;;;;;;;;;;;;;;;17.55;69.41;96574.97;1682297;82;20321;-64
2021/05/14 07:19:01;;;;;;;;;;;;;;;17.65;68.26;96577.09;1700897;82;21318;-63
2021/05/14 07:21:27;;;;;;;;;;;;;;;17.71;68.09;96572.61;1700453;82;20618;-63
2021/05/14 07:23:57;;;;;;;;;;;;;;;17.77;67.75;96573.98;1713608;81;20591;-63
2021/05/14 07:26:49;;;;;;;;;;;;;;;17.87;66.76;96578.92;1715159;81;20517;-62
2021/05/14 07:29:16;;;;;;;;;;;;;;;17.97;65.56;96575.14;1647523;84;20362;-69
2021/05/14 07:31:43;;;;;;;;;;;;;;;18.09;62.86;96576.55;1646655;84;21638;-67
2021/05/14 07:34:09;;;;;;;;;;;;;;;18.21;63.56;96573.22;1648074;84;20679;-64
2021/05/14 07:36:36;;;;;;;;;;;;;;;18.32;62.99;96574.39;1654486;84;20618;-62
2021/05/14 07:39:03;;;;;;;;;;;;;;;18.42;62.54;96578.56;1648398;84;20538;-64
2021/05/14 07:41:32;;;;;;;;;;;;;;;18.53;61.82;96578.39;1647165;84;20612;-66
2021/05/14 07:43:58;;;;;;;;;;;;;;;18.60;61.49;96569.38;1647575;84;21685;-63
2021/05/14 07:46:26;;;;;;;;;;;;;;;18.67;60.15;96573.63;1647785;84;20692;-65
2021/05/14 07:48:53;;;;;;;;;;;;;;;18.72;60.34;96574.78;1652236;84;20651;-71
2021/05/14 07:51:21;;;;;;;;;;;;;;;18.80;59.45;96575.27;1646040;84;20508;-66
2021/05/14 07:53:51;;;;;;;;;;;;;;;18.83;56.51;96575.93;1647534;84;20557;-69
2021/05/14 07:56:17;;;;;;;;;;;;;;;18.83;57.33;96582.58;1651178;84;21852;-63
2021/05/14 07:58:44;;;;;;;;;;;;;;;18.85;58.71;96581.72;1644918;84;20145;-63
2021/05/14 08:01:11;;;;;;;;;;;;;;;18.85;59.19;96577.72;1650406;84;20315;-64
2021/05/14 08:03:38;;;;;;;;;;;;;;;18.89;59.33;96580.50;1648212;84;20536;-62
2021/05/14 08:06:05;;;;;;;;;;;;;;;18.93;59.37;96585.41;1659961;84;20512;-62
2021/05/14 08:08:36;;;;;;;;;;;;;;;18.98;57.92;96581.20;1656718;84;21662;-63
2021/05/14 08:11:00;;;;;;;;;;;;;;;19.04;57.46;96585.22;1656806;84;20159;-64
2021/05/14 08:13:27;;;;;;;;;;;;;;;19.07;55.30;96584.58;1653988;84;20555;-62
2021/05/14 08:15:54;;;;;;;;;;;;;;;19.09;55.60;96581.80;1646634;84;20367;-65
2021/05/14 08:18:21;;;;;;;;;;;;;;;19.12;56.05;96585.70;1628603;86;20604;-63
2021/05/14 08:20:48;;;;;;;;;;;;;;;19.18;54.30;96588.38;1625129;86;21671;-63
2021/05/14 08:23:19;;;;;;;;;;;;;;;19.22;54.29;96585.30;1624898;86;20552;-65
2021/05/14 08:25:47;;;;;;;;;;;;;;;19.28;53.83;96588.53;1652326;84;20575;-64
2021/05/14 08:28:13;;;;;;;;;;;;;;;19.34;52.87;96594.66;1644941;84;20671;-66
2021/05/14 08:30:40;;;;;;;;;;;;;;;19.43;52.68;96591.91;1646068;84;20580;-68
2021/05/14 08:33:07;;;;;;;;;;;;;;;19.53;52.87;96588.05;1646106;86;21663;-67
2021/05/14 08:35:37;;;;;;;;;;;;;;;19.63;52.45;96592.42;1648678;84;20706;-66
2021/05/14 08:38:06;;;;;;;;;;;;;;;19.69;52.60;96592.98;1645462;85;20148;-66
2021/05/14 08:40:34;;;;;;;;;;;;;;;19.75;52.79;96595.64;1656907;84;20546;-67
2021/05/14 08:43:01;;;;;;;;;;;;;;;19.87;53.91;96591.12;1656636;84;20356;-60
2021/05/14 08:45:27;;;;;;;;;;;;;;;20.01;52.10;96593.47;1655782;83;21627;-64
2021/05/14 08:47:55;;;;;;;;;;;;;;;20.10;51.92;96599.44;1645281;85;20128;-65
2021/05/14 08:50:21;;;;;;;;;;;;;;;20.14;51.43;96600.91;1650661;84;20213;-63
2021/05/14 08:52:48;;;;;;;;;;;;;;;20.16;51.75;96606.14;1648708;83;20623;-66
2021/05/14 08:55:17;;;;;;;;;;;;;;;20.19;51.34;96606.00;1658298;84;20644;-63
2021/05/14 08:57:44;;;;;;;;;;;;;;;20.19;50.73;96600.67;1653312;84;21607;-63
2021/05/14 09:00:12;;;;;;;;;;;;;;;20.17;51.32;96602.33;1654527;84;20552;-64
2021/05/14 09:02:39;;;;;;;;;;;;;;;20.16;50.72;96602.69;1658778;84;20580;-66
2021/05/14 09:05:26;;;;;;;;;;;;;;;20.18;50.89;96605.22;1657894;84;20514;-66
2021/05/14 09:07:55;;;;;;;;;;;;;;;20.18;50.78;96609.23;1656811;84;20789;-70
2021/05/14 09:10:22;;;;;;;;;;;;;;;20.16;50.68;96616.81;1651491;84;21607;-64
2021/05/14 09:12:49;;;;;;;;;;;;;;;20.11;50.99;96612.23;1648264;85;20215;-66
2021/05/14 09:15:34;;;;;;;;;;;;;;;20.02;50.54;96616.36;1643347;84;20608;-63
2021/05/14 09:18:20;;;;;;;;;;;;;;;19.88;50.86;96623.32;1653242;84;20598;-64
2021/05/14 09:20:56;;;;;;;;;;;;;;;19.73;51.47;96617.87;1648640;84;20642;-62
2021/05/14 09:23:25;;;;;;;;;;;;;;;19.69;52.54;96624.41;1652952;84;21746;-64
2021/05/14 09:25:57;;;;;;;;;;;;;;;19.74;52.03;96621.52;1651712;84;20534;-65
2021/05/14 09:28:29;;;;;;;;;;;;;;;19.76;51.50;96625.98;1660183;84;20563;-66
2021/05/14 09:31:10;;;;;;;;;;;;;;;19.77;51.54;96622.77;1658633;84;20463;-64
2021/05/14 09:33:38;;;;;;;;;;;;;;;19.73;51.48;96624.55;1665042;84;20535;-67
2021/05/14 09:36:07;;;;;;;;;;;;;;;19.69;52.13;96628.41;1663801;84;21577;-68
2021/05/14 09:38:44;;;;;;;;;;;;;;;19.69;51.74;96626.30;1630127;84;20680;-66
2021/05/14 09:41:36;;;;;;;;;;;;;;;19.71;52.13;96628.87;1626776;85;20631;-69
2021/05/14 09:44:14;;;;;;;;;;;;;;;19.73;51.52;96629.32;1643639;85;20372;-67
2021/05/14 09:46:45;;;;;;;;;;;;;;;19.74;52.84;96627.41;1599415;87;20601;-67
2021/05/14 09:49:16;;;;;;;;;;;;;;;19.75;52.19;96633.75;1626708;85;21669;-70
2021/05/14 09:51:54;;;;;;;;;;;;;;;19.65;51.87;96632.08;1633431;86;20604;-67
2021/05/14 09:54:35;;;;;;;;;;;;;;;19.56;52.96;96640.16;1626903;86;20577;-69
2021/05/14 09:57:31;;;;;;;;;;;;;;;19.49;52.92;96645.24;1627585;86;20362;-71
2021/05/14 09:59:50;;;;;;;;;;;;;;;19.40;53.20;96643.95;1625457;85;20480;-68
2021/05/14 10:02:20;;;;;;;;;;;;;;;19.43;53.23;96642.53;1624758;86;21678;-70
2021/05/14 10:04:47;;;;;;;;;;;;;;;19.52;52.43;96643.27;1617783;85;20519;-70
2021/05/14 10:07:14;;;;;;;;;;;;;;;19.61;51.96;96642.60;1624950;85;20525;-68
2021/05/14 10:09:41;;;;;;;;;;;;;;;19.65;52.88;96642.19;1630909;85;20350;-66
2021/05/14 10:12:08;;;;;;;;;;;;;;;19.68;52.19;96644.17;1627235;85;21285;-69
2021/05/14 10:14:36;;;;;;;;;;;;;;;19.70;51.64;96639.85;1629575;87;21680;-72
2021/05/14 10:17:03;;;;;;;;;;;;;;;19.68;52.16;96647.39;1627829;85;20560;-65
2021/05/14 10:19:29;;;;;;;;;;;;;;;19.67;52.36;96649.28;1625064;85;20657;-69
2021/05/14 10:21:56;;;;;;;;;;;;;;;19.73;52.43;96645.88;1626987;85;20542;-68
2021/05/14 10:24:47;;;;;;;;;;;;;;;19.75;52.03;96640.41;1624712;86;20377;-66
2021/05/14 10:27:21;;;;;;;;;;;;;;;19.77;51.56;96643.54;1625802;86;21672;-66
2021/05/14 10:29:50;;;;;;;;;;;;;;;19.82;51.06;96642.53;1631759;85;20710;-71
2021/05/14 10:32:17;;;;;;;;;;;;;;;19.87;51.43;96642.34;1611703;86;20634;-71
2021/05/14 10:34:44;;;;;;;;;;;;;;;19.96;51.89;96647.00;1656091;84;20872;-70
2021/05/14 10:37:11;;;;;;;;;;;;;;;20.03;52.02;96649.89;1643701;84;20777;-64
2021/05/14 10:39:39;;;;;;;;;;;;;;;20.12;50.46;96643.91;1642637;84;21093;-68
2021/05/14 10:42:13;;;;;;;;;;;;;;;20.15;50.65;96641.92;1649655;84;21172;-68
2021/05/14 10:44:49;;;;;;;;;;;;;;;20.14;50.60;96659.03;1652602;84;20692;-75
2021/05/14 10:47:25;;;;;;;;;;;;;;;20.17;49.68;96641.59;1653610;84;20686;-70
2021/05/14 10:50:03;;;;;;;;;;;;;;;20.20;50.07;96643.03;1651131;84;20554;-66
2021/05/14 10:52:26;;;;;;;;;;;;;;;20.23;50.42;96641.59;1658228;84;21715;-67
2021/05/14 10:54:53;;;;;;;;;;;;;;;20.29;50.47;96646.92;1648471;84;20258;-68
2021/05/14 10:57:46;;;;;;;;;;;;;;;20.39;49.58;96640.37;1632509;85;20508;-72
2021/05/14 11:00:32;;;;;;;;;;;;;;;20.39;49.14;96645.16;1641252;84;20552;-70
2021/05/14 11:03:16;;;;;;;;;;;;;;;20.37;49.47;96641.28;1617225;86;20369;-67
2021/05/14 11:05:45;;;;;;;;;;;;;;;20.35;48.80;96644.84;1649628;84;21189;-67
2021/05/14 11:08:14;;;;;;;;;;;;;;;20.25;49.42;96640.13;1655555;84;21279;-66
2021/05/14 11:10:42;;;;;;;;;;;;;;;20.25;50.21;96645.47;1648099;84;20655;-69
2021/05/14 11:13:36;;;;;;;;;;;;;;;20.30;49.93;96646.38;1619817;86;20530;-65
2021/05/14 11:16:32;;;;;;;;;;;;;;;20.37;49.74;96644.73;1648045;84;22041;-65
2021/05/14 11:19:16;;;;;;;;;;;;;;;20.38;48.51;96643.62;1619485;86;21674;-67
2021/05/14 11:22:07;;;;;;;;;;;;;;;20.36;49.39;96652.52;1660020;84;20650;-68
2021/05/14 11:24:43;;;;;;;;;;;;;;;20.35;48.90;96651.50;1670050;84;20649;-64
2021/05/14 11:27:12;;;;;;;;;;;;;;;20.37;48.54;96651.96;1653607;84;20542;-65
2021/05/14 11:29:47;;;;;;;;;;;;;;;20.37;48.45;96655.96;1642805;84;20652;-63
2021/05/14 11:32:23;;;;;;;;;;;;;;;20.34;49.05;96657.95;1628318;85;21656;-67
2021/05/14 11:34:57;;;;;;;;;;;;;;;20.37;48.94;96658.62;1624618;86;20552;-63
2021/05/14 11:37:32;;;;;;;;;;;;;;;20.40;49.82;96658.73;1645451;85;20659;-67
2021/05/14 11:40:04;;;;;;;;;;;;;;;20.39;49.29;96656.38;1635539;86;20548;-69
2021/05/14 11:42:31;;;;;;;;;;;;;;;20.42;49.42;96652.50;1637075;86;20593;-71
2021/05/14 11:44:59;;;;;;;;;;;;;;;20.50;50.16;96655.62;1633208;86;21720;-67
2021/05/14 11:47:27;;;;;;;;;;;;;;;20.52;49.17;96661.41;1631326;86;20177;-66
2021/05/14 11:49:57;;;;;;;;;;;;;;;20.49;48.94;96655.95;1634283;86;20611;-68
2021/05/14 11:52:38;;;;;;;;;;;;;;;20.36;48.94;96660.52;1597366;87;20310;-66
2021/05/14 11:55:10;;;;;;;;;;;;;;;20.32;50.18;96651.58;1621194;85;20575;-68
2021/05/14 11:57:39;;;;;;;;;;;;;;;20.34;50.25;96656.06;1633992;85;21623;-65
2021/05/14 12:00:27;;;;;;;;;;;;;;;20.36;50.39;96657.06;1627445;86;20651;-71
2021/05/14 12:02:56;;;;;;;;;;;;;;;20.34;49.49;96656.06;1639853;85;20513;-68
2021/05/14 12:05:24;;;;;;;;;;;;;;;20.31;49.93;96655.94;1639002;85;20540;-66
2021/05/14 12:07:51;;;;;;;;;;;;;;;20.28;50.08;96658.16;1636502;85;20578;-67
2021/05/14 12:10:19;;;;;;;;;;;;;;;20.25;49.04;96662.03;1639092;85;21708;-69
2021/05/14 12:12:47;;;;;;;;;;;;;;;20.17;49.17;96660.27;1640083;85;20537;-66
2021/05/14 12:15:17;;;;;;;;;;;;;;;20.08;48.83;96656.92;1644743;85;20232;-69
2021/05/14 12:17:44;;;;;;;;;;;;;;;19.94;48.99;96661.24;1635146;85;20460;-66
2021/05/14 12:20:29;;;;;;;;;;;;;;;19.81;49.13;96655.66;1635735;85;20589;-67
2021/05/14 12:22:58;;;;;;;;;;;;;;;19.72;49.07;96662.42;1639453;85;21675;-71
2021/05/14 12:25:26;;;;;;;;;;;;;;;19.66;49.08;96656.30;1639381;85;20200;-71
2021/05/14 12:27:53;;;;;;;;;;;;;;;19.56;50.11;96664.69;1643259;85;20577;-69
2021/05/14 12:30:20;;;;;;;;;;;;;;;19.59;50.21;96665.38;1642777;85;20816;-66
2021/05/14 12:32:57;;;;;;;;;;;;;;;19.61;49.99;96665.81;1637057;86;20564;-66
2021/05/14 12:35:23;;;;;;;;;;;;;;;19.69;50.16;96660.95;1637807;85;21746;-66
2021/05/14 12:37:58;;;;;;;;;;;;;;;19.84;49.44;96669.66;1633670;85;20591;-63
2021/05/14 12:40:30;;;;;;;;;;;;;;;20.00;48.91;96676.47;1636335;85;20560;-64
2021/05/14 12:43:11;;;;;;;;;;;;;;;20.08;47.50;96673.70;1640635;85;20409;-65
2021/05/14 12:45:39;;;;;;;;;;;;;;;20.09;47.56;96680.60;1632931;85;20450;-63
2021/05/14 12:48:07;;;;;;;;;;;;;;;20.06;47.92;96679.14;1633508;85;21662;-63
2021/05/14 12:50:35;;;;;;;;;;;;;;;20.03;47.44;96679.23;1634715;85;20279;-65
2021/05/14 12:53:02;;;;;;;;;;;;;;;20.02;47.46;96675.03;1639663;85;20510;-66
2021/05/14 12:55:34;;;;;;;;;;;;;;;20.10;47.24;96676.05;1634548;85;20359;-67
